createdAt,value
2023-11-15T00:01:17.064Z,98312.78
2023-11-15T00:16:19.787Z,98334.72
2023-11-15T00:31:21.814Z,98349.75
2023-11-15T00:46:23.657Z,98392.09
2023-11-15T01:01:26.379Z,98429.31
2023-11-15T01:16:28.170Z,98467.34
2023-11-15T01:31:30.047Z,98495.75
2023-11-15T01:46:32.665Z,98518.78
2023-11-15T02:01:36.626Z,98547.16
2023-11-15T02:16:39.283Z,98555.78
2023-11-15T02:31:41.842Z,98578.00
2023-11-15T02:46:44.640Z,98617.91
2023-11-15T03:01:47.829Z,98628.41
2023-11-15T03:16:49.717Z,98648.75
2023-11-15T03:31:52.420Z,98691.59
2023-11-15T03:46:55.066Z,98702.88
2023-11-15T04:01:58.290Z,98741.38
2023-11-15T04:17:00.977Z,98760.72
2023-11-15T04:32:04.635Z,98789.13
2023-11-15T04:47:06.686Z,98816.72
2023-11-15T05:02:09.315Z,98832.53
2023-11-15T05:17:11.990Z,98851.88
2023-11-15T05:32:15.241Z,98886.44
2023-11-15T05:47:17.783Z,98904.97
2023-11-15T06:02:20.324Z,98928.59
2023-11-15T06:17:23.393Z,98930.25
2023-11-15T06:32:25.108Z,98958.88
2023-11-15T06:47:26.829Z,98990.19
2023-11-15T07:02:29.420Z,99027.66
2023-11-15T07:17:32.114Z,99056.53
2023-11-15T07:32:34.702Z,99085.97
2023-11-15T07:47:37.622Z,99103.88
2023-11-15T08:02:39.543Z,99118.09
2023-11-15T08:17:46.936Z,99137.63
2023-11-15T08:32:49.622Z,99156.16
2023-11-15T08:47:52.348Z,99164.41
2023-11-15T09:02:55.077Z,99170.59
2023-11-15T09:17:57.687Z,99168.53
2023-11-15T09:33:01.820Z,99179.81
2023-11-15T09:48:05.057Z,99195.06
2023-11-15T10:03:08.143Z,99206.59
2023-11-15T10:18:12.215Z,99212.19
2023-11-15T10:33:14.960Z,99219.38
2023-11-15T10:48:20.645Z,99222.91
2023-11-15T11:03:24.136Z,99224.75
2023-11-15T11:18:25.948Z,99231.94
2023-11-15T11:33:28.628Z,99239.16
2023-11-15T11:48:30.427Z,99239.97
2023-11-15T12:03:36.396Z,99244.50
2023-11-15T12:18:39.148Z,99252.53
2023-11-15T12:33:46.554Z,99257.06
2023-11-15T12:48:49.318Z,99264.28
2023-11-15T13:03:57.535Z,99266.97
2023-11-15T13:19:00.381Z,99271.50
2023-11-15T13:34:03.134Z,99271.50
2023-11-15T13:49:05.906Z,99287.78
2023-11-15T14:04:07.795Z,99295.00
2023-11-15T14:19:10.457Z,99311.25
2023-11-15T14:34:13.045Z,99333.72
2023-11-15T14:49:15.734Z,99349.16
2023-11-15T15:04:18.407Z,99367.09
2023-11-15T15:19:21.378Z,99367.31
2023-11-15T15:34:24.154Z,99380.06
2023-11-15T15:49:25.983Z,99393.69
2023-11-15T16:04:28.355Z,99411.59
2023-11-15T16:19:30.964Z,99417.97
2023-11-15T16:34:33.555Z,99447.44
2023-11-15T16:49:36.101Z,99448.44
2023-11-15T17:04:39.673Z,99457.53
2023-11-15T17:19:42.224Z,99459.97
2023-11-15T17:34:46.848Z,99451.94
2023-11-15T17:49:49.581Z,99459.97
2023-11-15T18:04:53.657Z,99459.78
2023-11-15T18:19:55.666Z,99452.59
2023-11-15T18:34:57.916Z,99446.41
2023-11-15T18:50:00.872Z,99441.25
2023-11-15T19:05:04.126Z,99444.56
2023-11-15T19:20:07.467Z,99455.03
2023-11-15T19:35:10.727Z,99462.88
2023-11-15T19:50:14.025Z,99483.03
2023-11-15T20:05:17.273Z,99482.00
2023-11-15T20:20:20.520Z,99488.19
2023-11-15T20:35:22.623Z,99474.41
2023-11-15T20:50:25.194Z,99471.31
2023-11-15T21:05:28.064Z,99462.88
2023-11-15T21:20:29.883Z,99456.31
2023-11-15T21:35:31.576Z,99453.41
2023-11-15T21:50:34.213Z,99451.59
2023-11-15T22:05:36.779Z,99441.69
2023-11-15T22:20:40.001Z,99426.25
2023-11-15T22:35:43.396Z,99418.03
2023-11-15T22:50:46.129Z,99414.13
2023-11-15T23:05:48.175Z,99409.19
2023-11-15T23:20:50.826Z,99402.38
2023-11-15T23:35:54.170Z,99404.47
2023-11-15T23:50:56.913Z,99410.41
